Terminal Aerodrome Forecast
Issued by NWS Grand Forks, ND

Home | Current Version | Previous Version | Graphics & Text | Print | Product List | Glossary On
Versions: 1 2 3 4 5 6 7 8 9 10 11 12 13 14 15
062
FTUS43 KFGF 191129
TAFGFK
TAF
KGFK 191129Z 1912/2012 17010KT P6SM FEW200
      TEMPO 1913/1915 3SM BR SCT004
     FM192200 18010KT P6SM BKN060
     FM200100 18009KT 3SM BR BKN015
     FM200200 18010KT 1 1/2SM BR BKN010=

USA.gov is the U.S. government's official web portal to all federal, state and local government web resources and services.